createdAt,value
2022-12-01T00:01:22.003Z,56.19
2022-12-01T00:03:48.936Z,53.43
2022-12-01T00:06:19.439Z,52.79
2022-12-01T00:09:07.273Z,52.79
2022-12-01T00:11:36.793Z,52.56
2022-12-01T00:14:04.798Z,51.10
2022-12-01T00:16:31.903Z,50.36
2022-12-01T00:18:59.066Z,50.35
2022-12-01T00:21:26.740Z,51.47
2022-12-01T00:23:56.784Z,51.52
2022-12-01T00:26:24.563Z,51.58
2022-12-01T00:28:57.371Z,51.22
2022-12-01T00:31:24.657Z,50.59
2022-12-01T00:33:51.559Z,50.34
2022-12-01T00:36:18.494Z,51.67
2022-12-01T00:38:45.531Z,49.95
2022-12-01T00:41:12.247Z,52.41
2022-12-01T00:43:39.692Z,52.21
2022-12-01T00:46:08.705Z,52.51
2022-12-01T00:48:35.499Z,52.67
2022-12-01T00:51:02.158Z,53.91
2022-12-01T00:53:29.320Z,52.38
2022-12-01T00:55:56.043Z,56.75
2022-12-01T00:58:24.132Z,53.32
2022-12-01T01:01:01.823Z,51.31
2022-12-01T01:03:29.975Z,52.05
2022-12-01T01:06:03.040Z,51.88
2022-12-01T01:08:29.726Z,52.16
2022-12-01T01:11:00.346Z,52.92
2022-12-01T01:13:28.488Z,51.12
2022-12-01T01:16:13.834Z,51.87
2022-12-01T01:18:43.080Z,53.28
2022-12-01T01:21:14.680Z,54.71
2022-12-01T01:23:41.707Z,53.08
2022-12-01T01:26:12.228Z,53.36
2022-12-01T01:28:41.471Z,52.82
2022-12-01T01:31:11.404Z,52.82
2022-12-01T01:33:38.464Z,52.51
2022-12-01T01:36:06.320Z,52.49
2022-12-01T01:38:34.451Z,52.71
2022-12-01T01:41:01.636Z,52.31
2022-12-01T01:43:55.893Z,52.69
2022-12-01T01:46:24.005Z,55.31
2022-12-01T01:49:01.434Z,53.24
2022-12-01T01:51:41.314Z,53.70
2022-12-01T01:54:17.363Z,54.36
2022-12-01T01:56:45.729Z,52.00
2022-12-01T01:59:16.589Z,52.30
2022-12-01T02:01:43.393Z,51.23
2022-12-01T02:04:10.120Z,50.83
2022-12-01T02:06:36.826Z,51.78
2022-12-01T02:09:03.635Z,51.31
2022-12-01T02:11:54.732Z,51.48
2022-12-01T02:14:54.406Z,49.89
2022-12-01T02:17:53.364Z,52.40
2022-12-01T02:20:48.776Z,51.28
2022-12-01T02:23:58.635Z,52.02
2022-12-01T02:27:16.501Z,53.21
2022-12-01T02:29:59.359Z,54.06
2022-12-01T02:33:16.361Z,55.16
2022-12-01T02:35:56.158Z,55.44
2022-12-01T02:38:40.709Z,55.04
2022-12-01T02:41:36.587Z,56.53
2022-12-01T02:44:20.143Z,55.31
2022-12-01T02:47:10.693Z,55.08
2022-12-01T02:49:49.506Z,52.93
2022-12-01T02:52:18.846Z,53.68
2022-12-01T02:54:48.389Z,53.06
2022-12-01T02:57:16.923Z,52.68
2022-12-01T02:59:50.185Z,55.73
2022-12-01T03:02:32.193Z,53.52
2022-12-01T03:05:08.259Z,52.88
2022-12-01T03:08:02.257Z,53.02
2022-12-01T03:10:41.635Z,53.22
2022-12-01T03:13:16.013Z,51.87
2022-12-01T03:16:09.003Z,52.49
2022-12-01T03:18:56.204Z,53.15
2022-12-01T03:21:40.738Z,53.81
2022-12-01T03:24:20.032Z,53.91
2022-12-01T03:26:53.463Z,56.17
2022-12-01T03:29:27.183Z,55.86
2022-12-01T03:32:00.676Z,53.02
2022-12-01T03:34:45.609Z,53.02
2022-12-01T03:37:32.213Z,51.54
2022-12-01T03:40:01.118Z,51.31
2022-12-01T03:42:39.029Z,52.38
2022-12-01T03:45:14.852Z,52.49
2022-12-01T03:47:41.673Z,51.72
2022-12-01T03:50:13.854Z,50.85
2022-12-01T03:52:52.654Z,51.72
2022-12-01T03:55:30.159Z,52.48
2022-12-01T03:58:17.470Z,52.79
2022-12-01T04:00:46.296Z,53.52
2022-12-01T04:03:25.526Z,51.82
2022-12-01T04:05:52.465Z,51.98
2022-12-01T04:08:19.136Z,51.68
2022-12-01T04:10:46.043Z,53.55
2022-12-01T04:13:22.255Z,53.33
2022-12-01T04:15:53.940Z,52.30
2022-12-01T04:18:21.531Z,51.90
2022-12-01T04:20:49.722Z,50.11
2022-12-01T04:23:35.327Z,50.38
2022-12-01T04:26:04.752Z,49.69
2022-12-01T04:28:31.874Z,49.65
2022-12-01T04:30:58.664Z,49.39
2022-12-01T04:33:25.490Z,49.51
2022-12-01T04:36:00.151Z,50.32
2022-12-01T04:38:30.859Z,52.83
2022-12-01T04:40:58.337Z,53.34
2022-12-01T04:43:25.201Z,52.68
2022-12-01T04:45:51.959Z,53.94
2022-12-01T04:48:18.630Z,53.36
2022-12-01T04:50:45.357Z,55.62
2022-12-01T04:53:11.963Z,54.40
2022-12-01T04:55:39.319Z,55.03
2022-12-01T04:58:06.703Z,53.14
2022-12-01T05:00:33.873Z,53.46
2022-12-01T05:03:00.701Z,51.37
2022-12-01T05:05:27.702Z,51.39
2022-12-01T05:07:54.446Z,50.33
2022-12-01T05:10:21.775Z,49.99
2022-12-01T05:12:48.619Z,51.65
2022-12-01T05:15:15.859Z,50.46
2022-12-01T05:17:42.588Z,50.37
2022-12-01T05:20:50.005Z,50.18
2022-12-01T05:23:17.281Z,50.59
2022-12-01T05:25:44.062Z,50.81
2022-12-01T05:28:10.813Z,50.75
2022-12-01T05:30:37.476Z,50.12
2022-12-01T05:33:04.273Z,49.93
2022-12-01T05:35:33.875Z,49.80
2022-12-01T05:38:06.100Z,49.49
2022-12-01T05:40:34.795Z,49.36
2022-12-01T05:43:01.720Z,50.64
2022-12-01T05:45:28.775Z,51.06
2022-12-01T05:47:59.890Z,52.96
2022-12-01T05:50:29.480Z,50.76
2022-12-01T05:52:56.301Z,49.17
2022-12-01T05:55:23.119Z,49.43
2022-12-01T05:57:49.849Z,49.34
2022-12-01T06:00:17.243Z,50.08
2022-12-01T06:02:44.031Z,50.89
2022-12-01T06:05:10.980Z,49.48
2022-12-01T06:07:40.194Z,49.06
2022-12-01T06:10:09.394Z,50.79
2022-12-01T06:12:36.991Z,49.60
2022-12-01T06:15:07.700Z,49.20
2022-12-01T06:17:39.996Z,49.41
2022-12-01T06:20:09.517Z,49.81
2022-12-01T06:22:36.320Z,51.01
2022-12-01T06:25:04.154Z,49.70
2022-12-01T06:27:30.999Z,49.31
2022-12-01T06:29:57.797Z,49.12
2022-12-01T06:32:24.436Z,49.18
2022-12-01T06:34:51.194Z,51.61
2022-12-01T06:37:17.888Z,52.49
2022-12-01T06:39:44.542Z,52.66
2022-12-01T06:42:11.978Z,51.96
2022-12-01T06:44:38.944Z,52.09
2022-12-01T06:47:05.646Z,51.47
2022-12-01T06:49:32.369Z,54.54
2022-12-01T06:52:00.960Z,54.69
2022-12-01T06:54:27.887Z,52.39
2022-12-01T06:56:54.612Z,51.71
2022-12-01T06:59:21.837Z,53.33
2022-12-01T07:01:48.703Z,50.89
2022-12-01T07:04:15.559Z,49.94
2022-12-01T07:06:42.199Z,49.03
2022-12-01T07:09:08.883Z,48.71
2022-12-01T07:11:36.502Z,49.00
2022-12-01T07:14:03.658Z,49.16
2022-12-01T07:16:30.814Z,50.25
2022-12-01T07:19:00.154Z,49.35
2022-12-01T07:21:26.870Z,50.62
2022-12-01T07:23:54.589Z,50.29
2022-12-01T07:26:21.515Z,52.05
2022-12-01T07:28:48.248Z,51.60
2022-12-01T07:31:18.047Z,50.67
2022-12-01T07:33:45.144Z,51.52
2022-12-01T07:36:13.292Z,50.16
2022-12-01T07:38:41.170Z,50.64
2022-12-01T07:41:11.967Z,50.00
2022-12-01T07:43:39.675Z,50.24
2022-12-01T07:46:22.239Z,51.05
2022-12-01T07:48:50.123Z,50.29
2022-12-01T07:51:17.583Z,51.70
2022-12-01T07:53:46.877Z,51.02
2022-12-01T07:56:14.025Z,49.85
2022-12-01T07:58:41.224Z,48.60
2022-12-01T08:01:12.546Z,49.17
2022-12-01T08:03:40.174Z,48.73
2022-12-01T08:06:08.313Z,48.06
2022-12-01T08:08:37.591Z,47.58
2022-12-01T08:11:09.359Z,47.50
2022-12-01T08:13:36.122Z,47.76
2022-12-01T08:16:08.085Z,49.42
2022-12-01T08:18:37.037Z,47.86
2022-12-01T08:21:04.816Z,49.56
2022-12-01T08:23:31.663Z,48.93
2022-12-01T08:26:09.035Z,47.85
2022-12-01T08:28:36.817Z,48.29
2022-12-01T08:31:18.836Z,48.40
2022-12-01T08:33:47.234Z,47.68
2022-12-01T08:36:14.499Z,48.17
2022-12-01T08:38:47.135Z,48.59
2022-12-01T08:41:15.365Z,48.07
2022-12-01T08:44:00.759Z,48.59
2022-12-01T08:46:37.430Z,47.59
2022-12-01T08:49:06.148Z,46.95
2022-12-01T08:51:33.167Z,46.35
2022-12-01T08:54:00.407Z,46.62
2022-12-01T08:56:32.432Z,47.30
2022-12-01T08:58:59.251Z,46.37
2022-12-01T09:01:26.354Z,48.13
2022-12-01T09:04:05.623Z,47.31
2022-12-01T09:06:39.521Z,47.70
2022-12-01T09:09:07.834Z,48.13
2022-12-01T09:11:34.568Z,48.43
2022-12-01T09:14:01.342Z,48.54
2022-12-01T09:16:28.142Z,48.18
2022-12-01T09:18:55.315Z,48.21
2022-12-01T09:21:27.446Z,49.13
2022-12-01T09:23:54.744Z,48.50
2022-12-01T09:26:22.047Z,48.81
2022-12-01T09:28:55.250Z,47.93
2022-12-01T09:31:23.395Z,47.90
2022-12-01T09:34:00.163Z,48.51
2022-12-01T09:36:28.447Z,48.48
2022-12-01T09:38:55.163Z,48.66
2022-12-01T09:41:37.813Z,48.79
2022-12-01T09:44:13.959Z,47.94
2022-12-01T09:46:48.299Z,46.95
2022-12-01T09:49:39.612Z,48.80
2022-12-01T09:52:12.786Z,48.32
2022-12-01T09:54:40.011Z,48.58
2022-12-01T09:57:13.097Z,48.62
2022-12-01T09:59:43.104Z,49.56
2022-12-01T10:02:33.781Z,48.11
2022-12-01T10:05:06.996Z,49.24
2022-12-01T10:07:40.203Z,49.51
2022-12-01T10:10:50.677Z,48.63
2022-12-01T10:13:21.639Z,48.00
2022-12-01T10:15:54.167Z,48.48
2022-12-01T10:18:51.701Z,51.40
2022-12-01T10:21:54.650Z,50.42
2022-12-01T10:24:54.152Z,50.45
2022-12-01T10:27:54.236Z,51.00
2022-12-01T10:30:23.732Z,51.28
2022-12-01T10:33:01.677Z,50.52
2022-12-01T10:35:36.041Z,50.87
2022-12-01T10:38:12.408Z,52.03
2022-12-01T10:40:41.249Z,51.24
2022-12-01T10:43:10.657Z,49.42
2022-12-01T10:45:44.065Z,50.26
2022-12-01T10:48:22.897Z,48.58
2022-12-01T10:51:14.082Z,49.28
2022-12-01T10:53:40.812Z,48.16
2022-12-01T10:56:14.418Z,48.21
2022-12-01T10:59:02.288Z,47.82
2022-12-01T11:01:35.556Z,46.94
2022-12-01T11:04:48.193Z,47.85
2022-12-01T11:07:33.011Z,49.12
2022-12-01T11:10:24.660Z,47.72
2022-12-01T11:13:18.333Z,46.89
2022-12-01T11:16:04.504Z,46.28
2022-12-01T11:18:38.976Z,45.91
2022-12-01T11:21:14.263Z,46.37
2022-12-01T11:23:53.485Z,46.41
2022-12-01T11:26:34.357Z,46.27
2022-12-01T11:29:19.469Z,47.32
2022-12-01T11:31:50.630Z,47.63
2022-12-01T11:34:20.903Z,46.65
2022-12-01T11:36:53.170Z,46.77
2022-12-01T11:39:29.042Z,46.90
2022-12-01T11:42:01.785Z,45.83
2022-12-01T11:47:25.353Z,45.24
2022-12-01T11:49:58.948Z,45.83
2022-12-01T11:52:31.057Z,45.42
2022-12-01T11:55:08.410Z,46.08
2022-12-01T11:57:43.688Z,47.07
2022-12-01T12:00:21.189Z,47.17
2022-12-01T12:03:24.858Z,48.08
2022-12-01T12:06:39.363Z,48.51
2022-12-01T12:09:45.217Z,47.07
2022-12-01T12:12:33.240Z,46.57
2022-12-01T12:15:38.056Z,46.98
2022-12-01T12:18:35.396Z,47.49
2022-12-01T12:21:13.942Z,47.02
2022-12-01T12:24:05.401Z,46.66
2022-12-01T12:27:05.009Z,45.98
2022-12-01T12:29:34.326Z,45.92
2022-12-01T12:32:27.092Z,45.44
2022-12-01T12:35:38.966Z,46.10
2022-12-01T12:38:30.603Z,46.19
2022-12-01T12:41:21.756Z,45.49
2022-12-01T12:43:57.247Z,46.69
2022-12-01T12:46:57.489Z,48.91
2022-12-01T12:49:31.950Z,48.48
2022-12-01T12:52:26.412Z,47.56
2022-12-01T12:55:25.255Z,49.45
2022-12-01T12:58:07.930Z,49.61
2022-12-01T13:00:46.304Z,50.46
2022-12-01T13:03:44.448Z,49.98
2022-12-01T13:06:38.175Z,49.70
2022-12-01T13:09:17.837Z,48.84
2022-12-01T13:12:09.982Z,48.22
2022-12-01T13:14:50.006Z,47.75
2022-12-01T13:17:23.523Z,48.05
2022-12-01T13:19:50.559Z,48.84
2022-12-01T13:22:21.094Z,49.46
2022-12-01T13:24:47.914Z,48.79
2022-12-01T13:27:20.673Z,47.66
2022-12-01T13:29:53.559Z,47.27
2022-12-01T13:32:47.150Z,46.94
2022-12-01T13:35:37.267Z,46.19
2022-12-01T13:38:36.326Z,45.88
2022-12-01T13:41:26.075Z,46.63
2022-12-01T13:44:01.317Z,47.11
2022-12-01T13:47:00.913Z,48.61
2022-12-01T13:49:42.444Z,47.63
2022-12-01T13:52:21.421Z,48.07
2022-12-01T13:55:09.495Z,48.14
2022-12-01T13:57:38.566Z,49.32
2022-12-01T14:00:25.675Z,50.98
2022-12-01T14:03:17.311Z,50.24
2022-12-01T14:05:53.141Z,47.94
2022-12-01T14:08:25.408Z,47.60
2022-12-01T14:11:18.066Z,48.21
2022-12-01T14:14:20.024Z,47.60
2022-12-01T14:17:02.317Z,47.96
2022-12-01T14:19:52.057Z,48.75
2022-12-01T14:22:46.480Z,49.65
2022-12-01T14:25:22.496Z,50.95
2022-12-01T14:27:57.584Z,52.04
2022-12-01T14:30:41.088Z,50.46
2022-12-01T14:33:48.830Z,51.27
2022-12-01T14:36:24.440Z,51.96
2022-12-01T14:39:17.168Z,53.42
2022-12-01T14:41:52.844Z,55.44
2022-12-01T14:44:35.360Z,54.06
2022-12-01T14:47:23.383Z,54.18
2022-12-01T14:50:11.768Z,55.12
2022-12-01T14:52:43.282Z,54.53
2022-12-01T14:55:27.765Z,54.16
2022-12-01T14:58:05.852Z,55.98
2022-12-01T15:00:37.445Z,56.13
2022-12-01T15:03:13.214Z,55.43
2022-12-01T15:05:43.478Z,55.56
2022-12-01T15:08:43.481Z,55.70
2022-12-01T15:11:30.229Z,56.66
2022-12-01T15:13:58.019Z,57.40
2022-12-01T15:16:30.668Z,57.28
2022-12-01T15:18:57.601Z,55.72
2022-12-01T15:21:31.450Z,56.40
2022-12-01T15:24:23.778Z,55.65
2022-12-01T15:27:03.337Z,57.93
2022-12-01T15:29:38.218Z,56.46
2022-12-01T15:32:08.569Z,56.52
2022-12-01T15:34:41.724Z,56.13
2022-12-01T15:37:15.816Z,56.17
2022-12-01T15:39:51.430Z,54.91
2022-12-01T15:42:44.800Z,54.12
2022-12-01T15:45:23.471Z,53.87
2022-12-01T15:47:52.730Z,56.32
2022-12-01T15:50:59.124Z,56.17
2022-12-01T15:53:32.917Z,57.91
2022-12-01T15:56:02.817Z,57.35
2022-12-01T15:58:34.921Z,56.42
2022-12-01T16:01:19.981Z,56.37
2022-12-01T16:04:02.452Z,55.08
2022-12-01T16:06:36.185Z,55.64
2022-12-01T16:09:35.641Z,54.74
2022-12-01T16:12:14.385Z,55.26
2022-12-01T16:15:18.317Z,56.33
2022-12-01T16:17:51.378Z,56.04
2022-12-01T16:20:31.809Z,57.25
2022-12-01T16:23:02.850Z,55.25
2022-12-01T16:25:35.536Z,53.97
2022-12-01T16:28:03.930Z,53.43
2022-12-01T16:30:39.403Z,52.91
2022-12-01T16:33:24.629Z,53.36
2022-12-01T16:35:52.242Z,54.30
2022-12-01T16:38:24.040Z,55.26
2022-12-01T16:41:02.091Z,54.63
2022-12-01T16:43:29.654Z,55.32
2022-12-01T16:46:03.270Z,54.60
2022-12-01T16:48:30.679Z,54.04
2022-12-01T16:51:01.741Z,54.61
2022-12-01T16:53:28.500Z,55.14
2022-12-01T16:56:00.363Z,53.90
2022-12-01T16:58:27.764Z,55.09
2022-12-01T17:00:54.916Z,55.89
2022-12-01T17:03:27.560Z,54.34
2022-12-01T17:05:55.157Z,55.69
2022-12-01T17:08:22.651Z,55.73
2022-12-01T17:10:50.924Z,54.56
2022-12-01T17:13:19.817Z,54.38
2022-12-01T17:15:49.428Z,53.37
2022-12-01T17:18:18.807Z,52.87
2022-12-01T17:20:46.062Z,52.21
2022-12-01T17:23:12.764Z,52.96
2022-12-01T17:25:42.296Z,52.70
2022-12-01T17:28:08.963Z,52.29
2022-12-01T17:30:37.143Z,52.67
2022-12-01T17:33:04.521Z,51.78
2022-12-01T17:35:31.159Z,51.82
2022-12-01T17:37:57.846Z,51.88
2022-12-01T17:40:24.495Z,51.24
2022-12-01T17:42:51.280Z,51.65
2022-12-01T17:45:18.962Z,52.17
2022-12-01T17:47:45.915Z,52.33
2022-12-01T17:50:12.619Z,52.79
2022-12-01T17:52:39.393Z,51.37
2022-12-01T17:55:07.403Z,52.83
2022-12-01T17:57:34.406Z,53.01
2022-12-01T18:00:01.686Z,53.10
2022-12-01T18:02:36.273Z,53.57
2022-12-01T18:05:03.389Z,52.83
2022-12-01T18:07:30.098Z,52.86
2022-12-01T18:09:57.046Z,53.19
2022-12-01T18:12:23.703Z,53.17
2022-12-01T18:14:50.675Z,54.12
2022-12-01T18:17:17.689Z,53.66
2022-12-01T18:19:44.415Z,53.33
2022-12-01T18:22:11.056Z,53.72
2022-12-01T18:24:38.017Z,53.72
2022-12-01T18:27:04.789Z,54.08
2022-12-01T18:29:31.596Z,53.55
2022-12-01T18:32:00.136Z,55.39
2022-12-01T18:34:31.267Z,53.40
2022-12-01T18:36:58.304Z,55.61
2022-12-01T18:39:25.116Z,55.36
2022-12-01T18:41:51.939Z,56.00
2022-12-01T18:44:20.872Z,54.02
2022-12-01T18:46:47.804Z,54.40
2022-12-01T18:49:14.554Z,54.07
2022-12-01T18:51:41.396Z,53.86
2022-12-01T18:54:12.774Z,54.56
2022-12-01T18:56:39.745Z,52.88
2022-12-01T18:59:09.629Z,53.48
2022-12-01T19:01:40.393Z,52.79
2022-12-01T19:04:09.590Z,54.06
2022-12-01T19:06:39.128Z,53.23
2022-12-01T19:09:09.119Z,53.71
2022-12-01T19:11:37.326Z,52.65
2022-12-01T19:14:04.691Z,53.69
2022-12-01T19:16:31.598Z,53.06
2022-12-01T19:18:58.505Z,51.84
2022-12-01T19:21:25.821Z,53.03
2022-12-01T19:23:53.019Z,54.08
2022-12-01T19:26:22.384Z,54.94
2022-12-01T19:28:49.553Z,55.83
2022-12-01T19:31:20.745Z,56.35
2022-12-01T19:33:47.778Z,54.91
2022-12-01T19:36:25.351Z,55.04
2022-12-01T19:38:53.212Z,55.11
2022-12-01T19:41:25.348Z,56.20
2022-12-01T19:43:53.446Z,54.40
2022-12-01T19:46:22.868Z,54.96
2022-12-01T19:48:56.564Z,55.66
2022-12-01T19:51:49.457Z,54.29
2022-12-01T19:54:19.229Z,54.90
2022-12-01T19:56:46.333Z,54.89
2022-12-01T19:59:14.789Z,54.63
2022-12-01T20:01:41.752Z,55.33
2022-12-01T20:04:08.883Z,54.07
2022-12-01T20:06:37.819Z,56.38
2022-12-01T20:09:07.049Z,54.94
2022-12-01T20:11:35.301Z,54.37
2022-12-01T20:14:05.615Z,54.55
2022-12-01T20:16:32.535Z,54.39
2022-12-01T20:19:02.313Z,53.78
2022-12-01T20:21:33.189Z,55.37
2022-12-01T20:24:07.058Z,56.14
2022-12-01T20:26:47.309Z,57.17
2022-12-01T20:29:26.382Z,55.75
2022-12-01T20:31:56.833Z,55.21
2022-12-01T20:34:34.549Z,55.95
2022-12-01T20:37:02.092Z,56.35
2022-12-01T20:39:32.286Z,56.79
2022-12-01T20:41:59.064Z,57.38
2022-12-01T20:44:26.784Z,56.46
2022-12-01T20:46:54.015Z,56.71
2022-12-01T20:49:20.773Z,58.69
2022-12-01T20:51:48.355Z,57.97
2022-12-01T20:54:32.973Z,57.59
2022-12-01T20:56:59.693Z,55.85
2022-12-01T20:59:27.079Z,56.67
2022-12-01T21:01:53.850Z,57.96
2022-12-01T21:04:20.619Z,56.22
2022-12-01T21:06:47.573Z,57.60
2022-12-01T21:09:15.004Z,57.34
2022-12-01T21:12:09.006Z,57.70
2022-12-01T21:14:47.304Z,55.27
2022-12-01T21:17:49.091Z,57.55
2022-12-01T21:20:32.340Z,57.47
2022-12-01T21:23:13.473Z,58.26
2022-12-01T21:25:42.196Z,59.25
2022-12-01T21:28:22.664Z,60.15
2022-12-01T21:31:13.701Z,60.23
2022-12-01T21:33:42.677Z,59.51
2022-12-01T21:36:19.772Z,57.34
2022-12-01T21:38:50.965Z,56.29
2022-12-01T21:41:27.019Z,56.75
2022-12-01T21:44:07.472Z,58.77
2022-12-01T21:46:35.161Z,59.01
2022-12-01T21:49:02.432Z,59.05
2022-12-01T21:51:30.814Z,58.04
2022-12-01T21:53:57.908Z,59.23
2022-12-01T21:56:31.567Z,60.87
2022-12-01T21:59:13.349Z,58.85
2022-12-01T22:01:40.612Z,59.51
2022-12-01T22:04:18.538Z,60.06
2022-12-01T22:06:52.716Z,61.42
2022-12-01T22:09:35.165Z,60.35
2022-12-01T22:12:20.747Z,59.55
2022-12-01T22:14:47.787Z,57.56
2022-12-01T22:17:21.473Z,56.62
2022-12-01T22:20:01.214Z,58.69
2022-12-01T22:22:32.963Z,60.83
2022-12-01T22:25:22.411Z,60.12
2022-12-01T22:27:49.611Z,60.41
2022-12-01T22:30:24.338Z,58.24
2022-12-01T22:33:10.877Z,56.98
2022-12-01T22:35:49.628Z,55.61
2022-12-01T22:38:31.611Z,55.92
2022-12-01T22:41:13.703Z,57.57
2022-12-01T22:44:00.606Z,57.00
2022-12-01T22:46:27.332Z,57.40
2022-12-01T22:49:01.494Z,58.93
2022-12-01T22:51:37.798Z,59.07
2022-12-01T22:54:10.173Z,58.00
2022-12-01T22:56:47.990Z,57.73
2022-12-01T22:59:33.862Z,58.07
2022-12-01T23:02:20.615Z,59.51
2022-12-01T23:04:49.730Z,59.14
2022-12-01T23:07:41.303Z,57.78
2022-12-01T23:10:18.015Z,58.55
2022-12-01T23:12:47.363Z,59.31
2022-12-01T23:15:29.137Z,58.95
2022-12-01T23:17:56.611Z,57.04
2022-12-01T23:20:33.176Z,56.80
2022-12-01T23:23:17.048Z,56.81
2022-12-01T23:25:45.897Z,58.80
2022-12-01T23:28:13.660Z,57.72
2022-12-01T23:30:43.301Z,57.01
2022-12-01T23:33:42.593Z,56.93
2022-12-01T23:36:18.814Z,56.86
2022-12-01T23:38:49.030Z,56.48
2022-12-01T23:41:34.759Z,54.96
2022-12-01T23:44:23.951Z,54.97
2022-12-01T23:46:57.592Z,55.83
2022-12-01T23:49:34.636Z,57.54
2022-12-01T23:52:03.315Z,57.26
2022-12-01T23:54:33.939Z,59.20
2022-12-01T23:57:23.706Z,56.57
2022-12-01T23:59:57.524Z,56.72
